Terminal Aerodrome Forecast
Issued by NWS

Home | Current Version | Previous Version | Text Only | Print | Product List | Glossary On
Versions: 1 2 3 4 5 6 7 8 9 10 11 12 13 14 15 16 17
000
FTUS43 KLSX 220900 AAA
TAFCPS
TAF AMD
KCPS 220900Z 2209/2306 VRB04KT 5SM BR SCT250
      TEMPO 2209/2212 3SM BR
     FM221500 19008KT P6SM FEW050 SCT250=

USA.gov is the U.S. government's official web portal to all federal, state and local government web resources and services.